createdAt,value
2022-10-28T00:01:15.149Z,99.90
2022-10-28T00:03:44.938Z,99.90
2022-10-28T00:06:15.137Z,99.90
2022-10-28T00:08:43.767Z,99.90
2022-10-28T00:11:14.000Z,99.90
2022-10-28T00:13:43.010Z,99.90
2022-10-28T00:16:14.479Z,99.90
2022-10-28T00:18:42.883Z,99.90
2022-10-28T00:21:13.331Z,99.90
2022-10-28T00:23:41.652Z,99.90
2022-10-28T00:26:11.950Z,99.90
2022-10-28T00:28:43.714Z,99.90
2022-10-28T00:31:14.731Z,99.90
2022-10-28T00:33:43.254Z,99.90
2022-10-28T00:36:13.648Z,99.90
2022-10-28T00:38:42.785Z,99.90
2022-10-28T00:41:11.756Z,99.90
2022-10-28T00:43:42.091Z,99.90
2022-10-28T00:46:19.392Z,99.90
2022-10-28T00:48:51.874Z,99.90
2022-10-28T00:51:23.411Z,99.90
2022-10-28T00:53:53.368Z,99.90
2022-10-28T00:56:22.350Z,99.90
2022-10-28T00:58:51.226Z,99.90
2022-10-28T01:01:20.604Z,99.90
2022-10-28T01:03:48.943Z,99.90
2022-10-28T01:06:17.454Z,99.90
2022-10-28T01:08:45.368Z,99.90
2022-10-28T01:11:41.421Z,99.90
2022-10-28T01:14:19.124Z,99.90
2022-10-28T01:17:01.793Z,99.90
2022-10-28T01:20:00.463Z,99.90
2022-10-28T01:22:34.974Z,99.90
2022-10-28T01:25:29.767Z,99.90
2022-10-28T01:28:21.791Z,99.90
2022-10-28T01:31:09.276Z,99.90
2022-10-28T01:33:42.491Z,99.90
2022-10-28T01:36:16.498Z,99.90
2022-10-28T01:38:52.345Z,99.90
2022-10-28T01:41:29.836Z,99.90
2022-10-28T01:44:06.575Z,99.90
2022-10-28T01:46:40.863Z,99.90
2022-10-28T01:49:15.186Z,99.90
2022-10-28T01:51:47.701Z,99.90
2022-10-28T01:54:20.157Z,99.90
2022-10-28T01:56:49.781Z,99.90
2022-10-28T01:59:21.053Z,99.90
2022-10-28T02:01:50.677Z,99.90
2022-10-28T02:04:18.853Z,99.90
2022-10-28T02:06:51.353Z,99.90
2022-10-28T02:09:33.901Z,99.90
2022-10-28T02:12:20.886Z,99.90
2022-10-28T02:15:15.658Z,99.90
2022-10-28T02:17:56.280Z,99.90
2022-10-28T02:20:34.534Z,99.90
2022-10-28T02:23:17.658Z,99.90
2022-10-28T02:25:52.382Z,99.90
2022-10-28T02:28:27.484Z,99.90
2022-10-28T02:31:00.265Z,99.90
2022-10-28T02:33:32.709Z,99.90
2022-10-28T02:36:04.260Z,99.90
2022-10-28T02:38:35.727Z,99.90
2022-10-28T02:41:08.076Z,99.90
2022-10-28T02:43:39.140Z,99.90
2022-10-28T02:46:09.238Z,99.90
2022-10-28T02:48:43.440Z,99.90
2022-10-28T02:51:15.747Z,99.90
2022-10-28T02:53:54.804Z,99.90
2022-10-28T02:56:23.331Z,99.90
2022-10-28T02:58:51.641Z,99.90
2022-10-28T03:01:19.730Z,99.90
2022-10-28T03:03:49.160Z,99.90
2022-10-28T03:06:17.132Z,99.90
2022-10-28T03:08:45.189Z,99.90
2022-10-28T03:11:13.130Z,99.90
2022-10-28T03:13:41.114Z,99.90
2022-10-28T03:16:09.217Z,99.90
2022-10-28T03:18:37.149Z,99.90
2022-10-28T03:21:06.555Z,99.90
2022-10-28T03:23:34.573Z,99.90
2022-10-28T03:26:02.500Z,99.90
2022-10-28T03:28:30.413Z,99.90
2022-10-28T03:30:58.380Z,99.90
2022-10-28T03:33:26.546Z,99.90
2022-10-28T03:35:54.494Z,99.90
2022-10-28T03:38:23.833Z,99.90
2022-10-28T03:40:52.152Z,99.90
2022-10-28T03:43:20.078Z,99.90
2022-10-28T03:45:49.345Z,99.90
2022-10-28T03:48:17.460Z,99.90
2022-10-28T03:50:45.533Z,99.90
2022-10-28T03:53:13.554Z,99.90
2022-10-28T03:55:43.005Z,99.90
2022-10-28T03:58:10.945Z,99.90
2022-10-28T04:00:38.867Z,99.90
2022-10-28T04:03:06.813Z,99.90
2022-10-28T04:05:34.782Z,99.90
2022-10-28T04:08:02.715Z,99.90
2022-10-28T04:10:30.751Z,99.90
2022-10-28T04:13:02.494Z,99.90
2022-10-28T04:15:30.653Z,99.90
2022-10-28T04:17:58.628Z,99.90
2022-10-28T04:20:27.656Z,99.90
2022-10-28T04:22:57.183Z,99.90
2022-10-28T04:25:26.613Z,99.90
2022-10-28T04:27:54.993Z,99.90
2022-10-28T04:30:25.263Z,99.90
2022-10-28T04:32:53.284Z,99.90
2022-10-28T04:35:21.242Z,99.90
2022-10-28T04:37:49.215Z,99.90
2022-10-28T04:40:17.565Z,99.90
2022-10-28T04:42:45.495Z,99.90
2022-10-28T04:45:13.607Z,99.90
2022-10-28T04:47:42.915Z,99.90
2022-10-28T04:50:11.034Z,99.90
2022-10-28T04:52:39.049Z,99.90
2022-10-28T04:55:07.728Z,99.90
2022-10-28T04:57:35.749Z,99.90
2022-10-28T05:00:03.987Z,99.90
2022-10-28T05:02:32.047Z,99.90
2022-10-28T05:05:03.479Z,99.90
2022-10-28T05:07:31.713Z,99.90
2022-10-28T05:09:59.714Z,99.90
2022-10-28T05:12:27.700Z,99.90
2022-10-28T05:14:55.666Z,99.90
2022-10-28T05:17:23.599Z,99.90
2022-10-28T05:19:51.551Z,99.90
2022-10-28T05:22:20.855Z,99.90
2022-10-28T05:24:48.857Z,99.90
2022-10-28T05:27:17.465Z,99.90
2022-10-28T05:29:45.408Z,99.90
2022-10-28T05:32:13.409Z,99.90
2022-10-28T05:34:41.378Z,99.90
2022-10-28T05:37:09.313Z,99.90
2022-10-28T05:39:38.585Z,99.90
2022-10-28T05:42:06.694Z,99.90
2022-10-28T05:44:34.671Z,99.90
2022-10-28T05:47:02.620Z,99.90
2022-10-28T05:49:30.521Z,99.90
2022-10-28T05:51:58.474Z,99.90
2022-10-28T05:54:26.416Z,99.90
2022-10-28T05:56:55.850Z,99.90
2022-10-28T05:59:23.800Z,99.90
2022-10-28T06:01:51.800Z,99.90
2022-10-28T06:04:19.805Z,99.90
2022-10-28T06:06:47.763Z,99.90
2022-10-28T06:09:15.704Z,99.90
2022-10-28T06:11:42.093Z,99.90
2022-10-28T06:14:11.429Z,99.90
2022-10-28T06:16:39.350Z,99.90
2022-10-28T06:19:07.280Z,99.90
2022-10-28T06:21:35.576Z,99.90
2022-10-28T06:24:05.115Z,99.90
2022-10-28T06:26:33.932Z,99.90
2022-10-28T06:29:01.999Z,99.90
2022-10-28T06:31:31.880Z,99.90
2022-10-28T06:34:00.039Z,99.90
2022-10-28T06:36:28.099Z,99.90
2022-10-28T06:38:56.129Z,99.90
2022-10-28T06:41:24.124Z,99.90
2022-10-28T06:43:52.166Z,99.90
2022-10-28T06:46:20.301Z,99.90
2022-10-28T06:48:51.135Z,99.90
2022-10-28T06:51:19.154Z,99.90
2022-10-28T06:53:49.920Z,99.90
2022-10-28T06:56:18.045Z,99.90
2022-10-28T06:58:46.081Z,99.90
2022-10-28T07:01:14.040Z,99.90
2022-10-28T07:03:42.759Z,99.90
2022-10-28T07:06:12.131Z,99.90
2022-10-28T07:08:40.108Z,99.90
2022-10-28T07:11:08.199Z,99.90
2022-10-28T07:13:36.277Z,99.90
2022-10-28T07:16:05.203Z,99.90
2022-10-28T07:18:33.209Z,99.90
2022-10-28T07:21:01.950Z,99.90
2022-10-28T07:23:32.953Z,99.90
2022-10-28T07:26:01.066Z,99.90
2022-10-28T07:28:29.348Z,99.90
2022-10-28T07:31:02.098Z,99.90
2022-10-28T07:33:30.179Z,99.90
2022-10-28T07:35:58.189Z,99.90
2022-10-28T07:38:26.386Z,99.90
2022-10-28T07:40:55.772Z,99.90
2022-10-28T07:43:23.859Z,99.90
2022-10-28T07:45:57.355Z,99.90
2022-10-28T07:48:25.680Z,99.90
2022-10-28T07:50:53.589Z,99.90
2022-10-28T07:53:23.647Z,99.90
2022-10-28T07:55:59.929Z,99.90
2022-10-28T07:58:28.215Z,99.90
2022-10-28T08:00:56.229Z,99.90
2022-10-28T08:03:31.335Z,99.90
2022-10-28T08:06:03.162Z,99.90
2022-10-28T08:08:31.307Z,99.90
2022-10-28T08:11:00.617Z,97.00
2022-10-28T08:13:28.576Z,95.70
2022-10-28T08:15:56.888Z,94.80
2022-10-28T08:18:24.860Z,93.20
2022-10-28T08:20:52.827Z,91.50
2022-10-28T08:23:20.776Z,88.90
2022-10-28T08:25:49.935Z,85.00
2022-10-28T08:28:19.734Z,81.10
2022-10-28T08:30:57.193Z,81.10
2022-10-28T08:33:35.996Z,73.50
2022-10-28T08:36:03.888Z,73.50
2022-10-28T08:38:31.786Z,68.50
2022-10-28T08:41:09.239Z,71.90
2022-10-28T08:43:57.087Z,70.50
2022-10-28T08:46:39.923Z,75.00
2022-10-28T08:49:13.216Z,75.00
2022-10-28T08:51:46.713Z,76.00
2022-10-28T08:54:18.897Z,78.00
2022-10-28T08:56:48.601Z,81.70
2022-10-28T08:59:22.894Z,82.70
2022-10-28T09:04:29.903Z,87.60
2022-10-28T09:06:57.927Z,88.40
2022-10-28T09:09:25.955Z,88.20
2022-10-28T09:12:10.458Z,89.60
2022-10-28T09:14:55.625Z,90.00
2022-10-28T09:17:33.196Z,90.20
2022-10-28T09:20:06.972Z,88.70
2022-10-28T09:22:43.335Z,89.10
2022-10-28T09:25:23.514Z,86.20
2022-10-28T09:28:04.369Z,84.60
2022-10-28T09:30:40.982Z,82.80
2022-10-28T09:33:22.522Z,81.70
2022-10-28T09:35:51.988Z,81.80
2022-10-28T09:38:28.112Z,79.60
2022-10-28T09:41:02.931Z,82.50
2022-10-28T09:43:33.935Z,83.40
2022-10-28T09:46:09.082Z,84.80
2022-10-28T09:48:40.354Z,84.20
2022-10-28T09:51:17.015Z,85.80
2022-10-28T09:53:49.544Z,86.50
2022-10-28T09:56:17.505Z,83.20
2022-10-28T09:58:47.663Z,80.20
2022-10-28T10:01:18.978Z,77.60
2022-10-28T10:03:49.757Z,76.30
2022-10-28T10:06:21.090Z,76.70
2022-10-28T10:08:49.288Z,74.00
2022-10-28T10:11:28.614Z,75.70
2022-10-28T10:13:58.930Z,74.70
2022-10-28T10:16:39.909Z,74.00
2022-10-28T10:19:09.770Z,76.60
2022-10-28T10:21:46.292Z,77.90
2022-10-28T10:24:30.650Z,76.90
2022-10-28T10:27:01.362Z,77.30
2022-10-28T10:29:30.427Z,75.50
2022-10-28T10:32:17.740Z,73.20
2022-10-28T10:34:50.867Z,73.80
2022-10-28T10:37:21.706Z,75.00
2022-10-28T10:40:03.139Z,72.30
2022-10-28T10:42:31.241Z,73.50
2022-10-28T10:45:02.615Z,75.50
2022-10-28T10:47:31.991Z,75.30
2022-10-28T10:50:22.898Z,77.90
2022-10-28T10:52:53.708Z,78.90
2022-10-28T10:55:28.894Z,76.10
2022-10-28T10:57:57.541Z,76.10
2022-10-28T11:00:32.255Z,77.30
2022-10-28T11:03:02.425Z,77.60
2022-10-28T11:05:35.860Z,79.40
2022-10-28T11:08:07.658Z,81.00
2022-10-28T11:10:36.300Z,81.60
2022-10-28T11:13:24.766Z,83.00
2022-10-28T11:16:01.555Z,82.00
2022-10-28T11:18:41.611Z,81.20
2022-10-28T11:21:28.296Z,81.00
2022-10-28T11:24:08.899Z,80.20
2022-10-28T11:26:42.226Z,80.80
2022-10-28T11:29:12.594Z,78.40
2022-10-28T11:32:25.145Z,77.20
2022-10-28T11:35:09.496Z,76.80
2022-10-28T11:37:53.352Z,75.40
2022-10-28T11:40:32.270Z,75.40
2022-10-28T11:43:24.046Z,77.00
2022-10-28T11:45:59.261Z,77.40
2022-10-28T11:48:50.715Z,78.00
2022-10-28T11:51:32.166Z,78.50
2022-10-28T11:54:21.615Z,79.80
2022-10-28T11:56:53.123Z,79.70
2022-10-28T12:00:03.543Z,81.20
2022-10-28T12:02:53.213Z,81.70
2022-10-28T12:05:26.589Z,82.40
2022-10-28T12:08:05.962Z,83.10
2022-10-28T12:10:42.552Z,82.30
2022-10-28T12:13:20.943Z,85.00
2022-10-28T12:15:56.415Z,85.40
2022-10-28T12:18:30.610Z,85.60
2022-10-28T12:21:04.128Z,86.20
2022-10-28T12:23:36.609Z,86.90
2022-10-28T12:26:09.320Z,90.10
2022-10-28T12:28:43.080Z,87.60
2022-10-28T12:31:19.877Z,88.50
2022-10-28T12:33:50.530Z,87.70
2022-10-28T12:36:25.984Z,88.70
2022-10-28T12:39:00.700Z,89.10
2022-10-28T12:41:44.051Z,89.40
2022-10-28T12:44:15.578Z,86.80
2022-10-28T12:46:51.119Z,88.40
2022-10-28T12:49:26.240Z,87.80
2022-10-28T12:51:54.582Z,83.20
2022-10-28T12:54:29.674Z,84.30
2022-10-28T12:57:04.518Z,83.10
2022-10-28T12:59:36.338Z,81.90
2022-10-28T13:02:08.642Z,83.20
2022-10-28T13:04:38.543Z,81.70
2022-10-28T13:07:33.169Z,80.40
2022-10-28T13:10:18.214Z,81.90
2022-10-28T13:13:12.465Z,81.00
2022-10-28T13:16:16.077Z,80.90
2022-10-28T13:19:19.396Z,82.70
2022-10-28T13:22:19.431Z,80.90
2022-10-28T13:24:56.792Z,80.50
2022-10-28T13:27:26.992Z,82.90
2022-10-28T13:29:58.332Z,82.70
2022-10-28T13:32:35.643Z,82.50
2022-10-28T13:35:14.466Z,82.80
2022-10-28T13:37:46.801Z,84.60
2022-10-28T13:40:24.096Z,84.70
2022-10-28T13:42:53.779Z,85.90
2022-10-28T13:45:48.842Z,87.40
2022-10-28T13:48:47.930Z,86.70
2022-10-28T13:51:34.339Z,89.00
2022-10-28T13:54:02.508Z,89.90
2022-10-28T13:56:39.093Z,88.90
2022-10-28T13:59:33.476Z,90.20
2022-10-28T14:02:33.141Z,88.90
2022-10-28T14:04:59.093Z,88.90
2022-10-28T14:07:30.253Z,90.60
2022-10-28T14:10:17.596Z,90.40
2022-10-28T14:12:51.282Z,89.70
2022-10-28T14:15:29.658Z,90.50
2022-10-28T14:18:10.276Z,90.60
2022-10-28T14:20:58.803Z,90.80
2022-10-28T14:24:06.289Z,90.50
2022-10-28T14:27:13.282Z,90.50
2022-10-28T14:29:44.903Z,90.30
2022-10-28T14:32:43.183Z,90.60
2022-10-28T14:35:30.116Z,90.40
2022-10-28T14:38:48.042Z,90.20
2022-10-28T14:41:27.460Z,90.80
2022-10-28T14:44:06.755Z,90.30
2022-10-28T14:46:47.106Z,90.80
2022-10-28T14:49:21.453Z,91.40
2022-10-28T14:51:50.785Z,90.90
2022-10-28T14:54:30.926Z,90.90
2022-10-28T14:56:58.845Z,91.00
2022-10-28T14:59:30.672Z,91.10
2022-10-28T15:02:03.258Z,91.90
2022-10-28T15:04:32.875Z,92.10
2022-10-28T15:07:01.018Z,92.50
2022-10-28T15:09:32.113Z,92.50
2022-10-28T15:12:02.541Z,93.10
2022-10-28T15:14:33.915Z,93.30
2022-10-28T15:17:10.775Z,94.20
2022-10-28T15:19:40.525Z,93.40
2022-10-28T15:22:15.020Z,93.60
2022-10-28T15:24:46.240Z,94.00
2022-10-28T15:27:16.237Z,94.30
2022-10-28T15:29:44.543Z,94.80
2022-10-28T15:32:25.694Z,95.20
2022-10-28T15:34:55.091Z,95.20
2022-10-28T15:37:25.170Z,95.80
2022-10-28T15:40:12.360Z,96.90
2022-10-28T15:42:43.216Z,96.20
2022-10-28T15:45:21.894Z,97.20
2022-10-28T15:47:50.190Z,98.10
2022-10-28T15:50:32.178Z,97.80
2022-10-28T15:53:32.010Z,98.70
2022-10-28T15:56:18.251Z,99.90
2022-10-28T15:58:47.341Z,99.90
2022-10-28T16:01:39.349Z,99.90
2022-10-28T16:04:28.304Z,99.90
2022-10-28T16:06:58.974Z,99.90
2022-10-28T16:09:32.124Z,99.90
2022-10-28T16:12:03.480Z,99.90
2022-10-28T16:14:34.957Z,99.90
2022-10-28T16:17:08.284Z,99.90
2022-10-28T16:19:39.278Z,99.90
2022-10-28T16:22:12.825Z,99.90
2022-10-28T16:24:40.831Z,99.90
2022-10-28T16:27:19.727Z,99.90
2022-10-28T16:29:47.983Z,99.90
2022-10-28T16:32:17.161Z,99.90
2022-10-28T16:34:45.197Z,99.90
2022-10-28T16:37:22.149Z,99.90
2022-10-28T16:39:52.553Z,99.90
2022-10-28T16:42:21.747Z,99.90
2022-10-28T16:44:49.954Z,99.90
2022-10-28T16:47:20.503Z,99.90
2022-10-28T16:49:54.013Z,99.90
2022-10-28T16:52:29.650Z,99.90
2022-10-28T16:54:58.717Z,99.90
2022-10-28T16:57:27.528Z,99.90
2022-10-28T16:59:55.819Z,99.90
2022-10-28T17:02:26.986Z,99.90
2022-10-28T17:04:55.400Z,99.90
2022-10-28T17:07:23.437Z,99.90
2022-10-28T17:09:52.866Z,99.90
2022-10-28T17:12:23.054Z,99.90
2022-10-28T17:14:51.401Z,99.90
2022-10-28T17:17:19.751Z,99.90
2022-10-28T17:19:47.760Z,99.90
2022-10-28T17:22:15.774Z,99.90
2022-10-28T17:24:43.737Z,99.90
2022-10-28T17:27:13.799Z,99.90
2022-10-28T17:29:41.784Z,99.90
2022-10-28T17:32:09.791Z,99.90
2022-10-28T17:34:38.007Z,99.90
2022-10-28T17:37:07.513Z,99.90
2022-10-28T17:39:35.705Z,99.90
2022-10-28T17:42:03.786Z,99.90
2022-10-28T17:44:33.053Z,99.90
2022-10-28T17:47:01.056Z,99.90
2022-10-28T17:49:29.307Z,99.90
2022-10-28T17:51:57.214Z,99.90
2022-10-28T17:54:25.287Z,99.90
2022-10-28T17:56:53.302Z,99.90
2022-10-28T17:59:21.259Z,99.90
2022-10-28T18:01:50.638Z,99.90
2022-10-28T18:04:19.896Z,99.90
2022-10-28T18:06:48.152Z,99.90
2022-10-28T18:09:16.078Z,99.90
2022-10-28T18:11:44.093Z,99.90
2022-10-28T18:14:12.019Z,99.90
2022-10-28T18:16:39.973Z,99.90
2022-10-28T18:19:09.341Z,99.90
2022-10-28T18:21:37.343Z,99.90
2022-10-28T18:24:05.675Z,99.90
2022-10-28T18:26:35.074Z,99.90
2022-10-28T18:29:04.004Z,99.90
2022-10-28T18:31:33.307Z,99.90
2022-10-28T18:34:01.897Z,99.90
2022-10-28T18:36:34.492Z,99.90
2022-10-28T18:39:03.246Z,99.90
2022-10-28T18:41:32.313Z,99.90
2022-10-28T18:44:12.460Z,99.90
2022-10-28T18:46:40.754Z,99.90
2022-10-28T18:49:09.139Z,99.90
2022-10-28T18:51:38.765Z,99.90
2022-10-28T18:54:06.824Z,99.90
2022-10-28T18:56:35.111Z,99.90
2022-10-28T18:59:04.579Z,99.90
2022-10-28T19:01:33.016Z,99.90
2022-10-28T19:04:02.399Z,99.90
2022-10-28T19:06:33.929Z,99.90
2022-10-28T19:09:05.206Z,99.90
2022-10-28T19:11:45.028Z,99.90
2022-10-28T19:14:13.021Z,99.90
2022-10-28T19:16:40.971Z,99.90
2022-10-28T19:19:08.960Z,99.90
2022-10-28T19:21:36.924Z,99.90
2022-10-28T19:24:06.872Z,99.90
2022-10-28T19:26:34.930Z,99.90
2022-10-28T19:29:05.152Z,99.90
2022-10-28T19:31:36.836Z,99.90
2022-10-28T19:34:05.614Z,99.90
2022-10-28T19:36:33.852Z,99.90
2022-10-28T19:39:02.006Z,99.90
2022-10-28T19:41:34.442Z,99.90
2022-10-28T19:44:03.569Z,99.90
2022-10-28T19:46:33.626Z,99.90
2022-10-28T19:49:04.477Z,99.90
2022-10-28T19:51:34.348Z,99.90
2022-10-28T19:54:04.914Z,99.90
2022-10-28T19:56:35.956Z,99.90
2022-10-28T19:59:05.445Z,99.90
2022-10-28T20:01:35.522Z,99.90
2022-10-28T20:04:03.727Z,99.90
2022-10-28T20:06:33.606Z,99.90
2022-10-28T20:09:01.809Z,99.90
2022-10-28T20:11:32.459Z,99.90
2022-10-28T20:14:14.418Z,99.90
2022-10-28T20:16:46.079Z,99.90
2022-10-28T20:19:14.439Z,99.90
2022-10-28T20:21:47.055Z,99.90
2022-10-28T20:24:15.604Z,99.90
2022-10-28T20:26:43.785Z,99.90
2022-10-28T20:29:16.456Z,99.90
2022-10-28T20:31:44.733Z,99.90
2022-10-28T20:34:12.801Z,99.90
2022-10-28T20:36:44.056Z,99.90
2022-10-28T20:39:15.255Z,99.90
2022-10-28T20:41:45.199Z,99.90
2022-10-28T20:44:14.668Z,99.90
2022-10-28T20:46:44.996Z,99.90
2022-10-28T20:49:13.253Z,99.90
2022-10-28T20:51:41.614Z,99.90
2022-10-28T20:54:09.743Z,99.90
2022-10-28T20:56:40.269Z,99.90
2022-10-28T20:59:08.538Z,99.90
2022-10-28T21:01:44.018Z,99.90
2022-10-28T21:04:12.995Z,99.90
2022-10-28T21:06:41.418Z,99.90
2022-10-28T21:09:10.066Z,99.90
2022-10-28T21:11:37.992Z,99.90
2022-10-28T21:14:05.928Z,99.90
2022-10-28T21:16:34.239Z,99.90
2022-10-28T21:19:03.855Z,99.90
2022-10-28T21:21:32.350Z,99.90
2022-10-28T21:24:00.405Z,99.90
2022-10-28T21:26:28.313Z,99.90
2022-10-28T21:28:56.349Z,99.90
2022-10-28T21:31:24.762Z,99.90
2022-10-28T21:33:52.994Z,99.90
2022-10-28T21:36:23.010Z,99.90
2022-10-28T21:38:54.188Z,99.90
2022-10-28T21:41:23.115Z,99.90
2022-10-28T21:43:52.556Z,99.90
2022-10-28T21:46:21.716Z,99.90
2022-10-28T21:48:49.810Z,99.90
2022-10-28T21:51:18.425Z,99.90
2022-10-28T21:53:47.910Z,99.90
2022-10-28T21:56:19.162Z,99.90
2022-10-28T21:58:48.547Z,99.90
2022-10-28T22:01:18.140Z,99.90
2022-10-28T22:03:46.146Z,99.90
2022-10-28T22:06:14.454Z,99.90
2022-10-28T22:08:42.641Z,99.90
2022-10-28T22:11:14.652Z,99.90
2022-10-28T22:13:42.971Z,99.90
2022-10-28T22:16:13.207Z,99.90
2022-10-28T22:18:41.387Z,99.90
2022-10-28T22:21:11.724Z,99.90
2022-10-28T22:23:39.918Z,99.90
2022-10-28T22:26:09.680Z,99.90
2022-10-28T22:28:39.513Z,99.90
2022-10-28T22:31:09.173Z,99.90
2022-10-28T22:33:37.796Z,99.90
2022-10-28T22:36:08.019Z,99.90
2022-10-28T22:38:36.221Z,99.90
2022-10-28T22:41:07.240Z,99.90
2022-10-28T22:43:35.580Z,99.90
2022-10-28T22:46:05.309Z,99.90
2022-10-28T22:48:33.869Z,99.90
2022-10-28T22:51:02.032Z,99.90
2022-10-28T22:53:29.981Z,99.90
2022-10-28T22:55:58.531Z,99.90
2022-10-28T22:58:27.968Z,99.90
2022-10-28T23:01:06.394Z,99.90
2022-10-28T23:03:38.951Z,99.90
2022-10-28T23:06:07.565Z,99.90
2022-10-28T23:08:38.074Z,99.90
2022-10-28T23:11:06.970Z,99.90
2022-10-28T23:13:35.205Z,99.90
2022-10-28T23:16:08.921Z,99.90
2022-10-28T23:18:37.296Z,99.90
2022-10-28T23:21:07.184Z,99.90
2022-10-28T23:23:35.222Z,99.90
2022-10-28T23:26:03.267Z,99.90
2022-10-28T23:28:31.694Z,99.90
2022-10-28T23:31:03.063Z,99.90
2022-10-28T23:33:33.368Z,99.90
2022-10-28T23:36:03.584Z,99.90
2022-10-28T23:38:31.730Z,99.90
2022-10-28T23:41:01.168Z,99.90
2022-10-28T23:43:30.164Z,99.90
2022-10-28T23:45:59.445Z,99.90
2022-10-28T23:48:28.683Z,99.90
2022-10-28T23:50:58.512Z,99.90
2022-10-28T23:53:26.510Z,99.90
2022-10-28T23:55:54.635Z,99.90
2022-10-28T23:58:23.541Z,99.90
